Latest Coastal Weather Observations for Gladstone

IDQ60701

Issued at 3:15 am EST Thursday 24 April 2014 (issued every 10 minutes, with the page automatically refreshed every 10 minutes)

About coastal observations | Map of coastal stations | Coastal observations for QLD | Marine services | Other Formats
Station Details ID: 039123 Name: GLADSTONE RADAR Lat: -23.86 Lon: 151.26 Height: 74.5 m
Data from the previous 72 hours. | See also: Recent months at Gladstone
Date/Time
EST
Temp

°C
Wind Pressure Rain
since 9am
mm
Weather Cloud Vis
km
Sea
Height
m
Swell
Dir
 
Speed
knots
Gust
knots
hPa Trend Height
m
Period
s
Dir
24/03:00am 21.1 S 6 9 1014.3 - 0.0 - - - - - - -
24/02:30am 21.2 S 6 8 1014.8 - 0.0 - - - - - - -
24/02:00am 21.3 S 5 7 1015.5 - 0.0 - - - - - - -
24/01:30am 21.5 SSE 5 7 1015.1 - 0.0 - - - - - - -
24/01:00am 21.3 S 5 7 1016.0 - 0.0 - - - - - - -
24/12:30am 21.4 S 5 7 1016.4 - 0.0 - - - - - - -
24/12:00am 21.4 S 5 7 1016.4 - 0.0 - - - - - - -
 
Date/Time
EST
Temp

°C
Wind Pressure Rain
since 9am
mm
Weather Cloud Vis
km
Sea
Height
m
Swell
Dir
 
Speed
knots
Gust
knots
hPa Trend Height
m
Period
s
Dir
23/11:30pm 21.2 S 5 7 1017.0 - 0.0 - - - - - - -
23/11:00pm 21.2 S 4 6 1017.0 - 0.0 - - - - - - -
23/10:30pm 21.2 S 5 6 1017.1 - 0.0 - - - - - - -
23/10:00pm 21.1 SSE 5 7 1017.1 - 0.0 - - - - - - -
23/09:30pm 21.3 S 5 7 1017.3 - 0.0 - - - - - - -
23/09:00pm 21.5 S 3 5 1017.1 - 0.0 - - - - - - -
23/08:30pm 21.7 ESE 3 5 1017.3 - 0.0 - - - - - - -
23/08:00pm 21.4 ENE 6 7 1017.0 - 0.0 - - - - - - -
23/07:30pm 21.6 ENE 6 8 1016.6 - 0.0 - - - - - - -
23/07:00pm 21.7 E 7 12 1016.6 - 0.0 - - - - - - -
23/06:30pm 21.4 E 8 12 1016.2 - 0.0 - - - - - - -
23/06:00pm 21.8 E 7 9 1015.9 - 0.0 - - - - - - -
23/05:30pm 21.9 NE 4 5 1016.2 - 0.0 - - - - - - -
23/05:00pm 22.3 ENE 7 9 1015.5 - 0.0 - - - - - - -
23/04:30pm 22.5 NE 7 11 1015.5 - 0.0 - - - - - - -
23/04:00pm 22.9 NE 7 13 1015.4 - 0.0 - - - - - - -
23/03:30pm 23.0 NE 7 11 1015.4 - 0.0 - - - - - - -
23/03:00pm 23.4 NE 10 15 1014.8 - 0.0 - - - - - - -
23/02:30pm 24.3 E 10 14 1015.2 - 0.0 - - - - - - -
23/02:00pm 25.0 ENE 10 13 1015.3 - 0.0 - - - - - - -
23/01:30pm 25.9 ENE 9 13 1015.4 - 0.0 - - - - - - -
23/01:00pm 25.1 ENE 8 11 1016.0 - 0.0 - - - - - - -
23/12:30pm 24.7 ENE 8 10 1016.5 - 0.0 - - - - - - -
23/12:00pm 23.6 E 10 13 1016.7 - 0.0 - - - - - - -
23/11:30am 24.6 ENE 9 13 1017.1 - 0.0 - - - - - - -
23/11:00am 25.3 ENE 10 14 1017.4 - 0.0 - - - - - - -
23/10:30am 25.0 E 11 15 1017.6 - 0.0 - - - - - - -
23/10:00am 24.6 SE 7 12 1017.9 - 0.0 - - - - - - -
23/09:30am 23.7 SE 7 11 1018.0 - 0.0 - - - - - - -
23/09:00am 23.2 SE 6 10 1017.8 - 0.0 - - - - - - -
23/08:30am 22.8 SE 8 13 1017.7 - 0.0 - - - - - - -
23/08:00am 22.2 SSE 7 11 1017.9 - 0.0 - - - - - - -
23/07:30am 21.8 SSE 7 11 1017.5 - 0.0 - - - - - - -
23/07:00am 21.8 SSE 7 11 1017.4 - 0.0 - - - - - - -
23/06:30am 21.8 SSE 8 12 1017.5 - 0.0 - - - - - - -
23/06:00am 21.7 SSE 8 11 1017.0 - 0.0 - - - - - - -
23/05:30am 21.5 SSE 9 13 1016.8 - 0.0 - - - - - - -
23/05:00am 21.7 SSE 8 12 1017.1 - 0.0 - - - - - - -
23/04:30am 21.6 SSE 8 11 1017.2 - 0.0 - - - - - - -
23/04:00am 21.6 SSE 8 12 1017.0 - 0.0 - - - - - - -
23/03:30am 21.5 SSE 8 11 1016.9 - 0.0 - - - - - - -
23/03:00am 21.6 SSE 7 11 1016.8 - 0.0 - - - - - - -
23/02:30am 21.5 SE 8 11 1016.9 - 0.0 - - - - - - -
23/02:00am 21.9 SSE 8 11 1017.2 - 0.0 - - - - - - -
23/01:30am 21.8 SSE 8 10 1017.6 - 0.0 - - - - - - -
23/01:00am 21.7 S 7 9 1018.0 - 0.0 - - - - - - -
23/12:30am 21.8 SSE 8 10 1018.2 - 0.0 - - - - - - -
23/12:00am 21.8 SSE 8 11 1017.9 - 0.0 - - - - - - -
 
Date/Time
EST
Temp

°C
Wind Pressure Rain
since 9am
mm
Weather Cloud Vis
km
Sea
Height
m
Swell
Dir
 
Speed
knots
Gust
knots
hPa Trend Height
m
Period
s
Dir
22/11:30pm 21.8 SSE 9 11 1018.3 - 0.0 - - - - - - -
22/11:00pm 22.0 SE 7 10 1018.6 - 0.0 - - - - - - -
22/10:30pm 22.7 SE 7 11 1018.9 - 0.0 - - - - - - -
22/10:00pm 23.1 ENE 9 12 1018.8 - 0.0 - - - - - - -
22/09:30pm 23.2 E 11 15 1018.8 - 0.0 - - - - - - -
22/09:00pm 23.5 ENE 11 17 1018.7 - 0.0 - - - - - - -
22/08:30pm 23.4 ENE 10 15 1019.0 - 0.0 - - - - - - -
22/08:00pm 23.4 E 11 15 1018.7 - 0.0 - - - - - - -
22/07:30pm 23.1 ENE 11 15 1018.4 - 0.0 - - - - - - -
22/07:00pm 23.1 ENE 10 13 1018.0 - 0.0 - - - - - - -
22/06:30pm 23.0 E 9 13 1018.1 - 0.0 - - - - - - -
22/06:00pm 23.3 ENE 10 15 1017.7 - 0.0 - - - - - - -
22/05:30pm 23.9 ENE 11 15 1017.8 - 0.0 - - - - - - -
22/05:00pm 24.4 ENE 10 14 1017.6 - 0.0 - - - - - - -
22/04:30pm 24.9 ENE 9 15 1017.3 - 0.0 - - - - - - -
22/04:00pm 25.8 ENE 11 15 1017.2 - 0.0 - - - - - - -
22/03:30pm 26.2 ENE 10 15 1017.3 - 0.0 - - - - - - -
22/03:00pm 26.3 ENE 11 15 1017.1 - 0.0 - - - - - - -
22/02:30pm 27.0 ENE 12 17 1017.5 - 0.0 - - - - - - -
22/02:00pm 27.2 ENE 11 15 1017.6 - 0.0 - - - - - - -
22/01:30pm 27.3 ENE 11 17 1018.0 - 0.0 - - - - - - -
22/01:00pm 26.8 E 13 18 1018.1 - 0.0 - - - - - - -
22/12:30pm 27.7 E 12 18 1018.6 - 0.0 - - - - - - -
22/12:00pm 26.9 E 13 18 1018.6 - 0.0 - - - - - - -
22/11:30am 27.1 E 12 17 1019.4 - 0.0 - - - - - - -
22/11:00am 27.2 E 12 16 1019.8 - 0.0 - - - - - - -
22/10:30am 27.2 ENE 10 15 1020.2 - 0.0 - - - - - - -
22/10:00am 26.6 E 10 16 1020.4 - 0.0 - - - - - - -
22/09:30am 25.8 ESE 9 14 1020.4 - 0.0 - - - - - - -
22/09:00am 24.3 SE 7 14 1020.2 - 0.0 - - - - - - -
22/08:30am 23.4 SE 8 13 1020.5 - 0.0 - - - - - - -
22/08:00am 22.8 SE 7 11 1020.3 - 0.0 - - - - - - -
22/07:30am 21.3 S 6 8 1020.2 - 0.0 - - - - - - -
22/07:00am 20.8 SSE 8 11 1019.8 - 0.0 - - - - - - -
22/06:30am 20.6 S 8 12 1019.5 - 0.0 - - - - - - -
22/06:00am 20.5 S 8 11 1018.9 - 0.0 - - - - - - -
22/05:30am 20.4 S 9 11 1019.2 - 0.0 - - - - - - -
22/05:00am 20.6 S 8 11 1019.2 - 0.0 - - - - - - -
22/04:30am 20.6 S 9 12 1018.9 - 0.0 - - - - - - -
22/04:00am 20.5 S 8 11 1018.8 - 0.0 - - - - - - -
22/03:30am 20.5 S 9 11 1018.8 - 0.0 - - - - - - -
22/03:00am 20.6 SSE 8 11 1018.7 - 0.0 - - - - - - -
22/02:30am 20.7 S 8 12 1019.0 - 0.0 - - - - - - -
22/02:00am 20.8 SSE 8 9 1019.1 - 0.0 - - - - - - -
22/01:30am 20.8 SSE 8 10 1019.4 - 0.0 - - - - - - -
22/01:00am 20.9 SSE 8 10 1019.6 - 0.0 - - - - - - -
22/12:30am 21.3 SSE 6 9 1019.8 - 0.0 - - - - - - -
22/12:00am 21.3 SE 7 10 1019.7 - 0.0 - - - - - - -
 
Date/Time
EST
Temp

°C
Wind Pressure Rain
since 9am
mm
Weather Cloud Vis
km
Sea
Height
m
Swell
Dir
 
Speed
knots
Gust
knots
hPa Trend Height
m
Period
s
Dir
21/11:30pm 21.8 ESE 8 10 1020.2 - 0.0 - - - - - - -
21/11:00pm 22.5 E 10 14 1020.3 - 0.0 - - - - - - -
21/10:30pm 22.5 ENE 11 15 1020.3 - 0.0 - - - - - - -
21/10:00pm 22.5 ENE 10 13 1020.3 - 0.0 - - - - - - -
21/09:30pm 22.6 E 10 15 1020.3 - 0.0 - - - - - - -
21/09:00pm 22.6 E 10 13 1020.0 - 0.0 - - - - - - -
21/08:30pm 22.7 E 10 13 1020.4 - 0.0 - - - - - - -
21/08:00pm 22.7 ENE 10 13 1020.4 - 0.0 - - - - - - -
21/07:30pm 22.8 ENE 9 13 1020.1 - 0.0 - - - - - - -
21/07:00pm 22.8 E 9 12 1019.6 - 0.0 - - - - - - -
21/06:30pm 22.8 E 9 11 1019.0 - 0.0 - - - - - - -
21/06:00pm 23.0 E 10 14 1018.5 - 0.0 - - - - - - -
21/05:30pm 23.5 ENE 10 14 1018.5 - 0.0 - - - - - - -
21/05:00pm 24.1 ENE 11 16 1018.2 - 0.0 - - - - - - -
21/04:30pm 24.8 ENE 10 14 1018.1 - 0.0 - - - - - - -
21/04:00pm 25.8 ENE 10 14 1018.1 - 0.0 - - - - - - -
21/03:30pm 26.4 ENE 11 15 1017.9 - 0.0 - - - - - - -
21/03:00pm 27.0 ENE 11 15 1017.6 - 0.0 - - - - - - -
21/02:30pm 27.3 ENE 10 14 1017.8 - 0.0 - - - - - - -
21/02:00pm 27.8 ENE 9 13 1018.0 - 0.0 - - - - - - -
21/01:30pm 27.9 ENE 9 14 1018.2 - 0.0 - - - - - - -
21/01:00pm 27.9 ENE 10 14 1018.4 - 0.0 - - - - - - -
21/12:30pm 27.8 NE 9 15 1019.0 - 0.0 - - - - - - -
21/12:00pm 27.9 ENE 10 15 1019.1 - 0.0 - - - - - - -
21/11:30am 27.7 ENE 9 13 1019.9 - 0.0 - - - - - - -
21/11:00am 27.8 NE 7 11 1020.4 - 0.0 - - - - - - -
21/10:30am 27.3 ENE 7 10 1020.5 - 0.0 - - - - - - -
21/10:00am 26.5 ENE 5 9 1020.5 - 0.0 - - - - - - -
21/09:30am 26.1 ENE 4 6 1020.5 - 0.0 - - - - - - -
21/09:00am 24.8 E 4 6 1020.1 - 0.0 - - - - - - -
21/08:30am 23.3 SE 1 4 1020.5 - 0.0 - - - - - - -
21/08:00am 21.6 S 2 4 1020.2 - 0.0 - - - - - - -
21/07:30am 21.1 S 4 6 1019.9 - 0.0 - - - - - - -
21/07:00am 20.4 S 5 7 1019.7 - 0.0 - - - - - - -
21/06:30am 20.3 S 6 7 1019.4 - 0.0 - - - - - - -
21/06:00am 20.4 S 6 6 1018.7 - 0.0 - - - - - - -
21/05:30am 20.6 S 5 6 1018.7 - 0.0 - - - - - - -
21/05:00am 20.3 S 5 6 1018.4 - 0.0 - - - - - - -
21/04:30am 20.5 S 4 5 1018.3 - 0.0 - - - - - - -
21/04:00am 20.9 CALM 0 1 1018.2 - 0.0 - - - - - - -
21/03:30am 20.9 CALM 0 1 1018.0 - 0.0 - - - - - - -

Other Formats:

Comma delimited format used in spreadsheet applications
http://www.bom.gov.au/fwo/IDQ60701/IDQ60701.94380.axf

JavaScript Object Notation format (JSON) in row-major order
http://www.bom.gov.au/fwo/IDQ60701/IDQ60701.94380.json